sensor_id;sensor_type;location;lat;lon;timestamp;P1;durP1;ratioP1;P2;durP2;ratioP2
43933;SDS011;59081;42.706;23.306;2023-01-15T00:01:33;32.05;;;16.75;;
43933;SDS011;59081;42.706;23.306;2023-01-15T00:04:00;29.30;;;13.93;;
43933;SDS011;59081;42.706;23.306;2023-01-15T00:06:29;27.20;;;16.50;;
43933;SDS011;59081;42.706;23.306;2023-01-15T00:08:56;28.83;;;15.50;;
43933;SDS011;59081;42.706;23.306;2023-01-15T00:11:22;30.52;;;15.90;;
43933;SDS011;59081;42.706;23.306;2023-01-15T00:13:48;29.42;;;14.38;;
43933;SDS011;59081;42.706;23.306;2023-01-15T00:16:15;29.35;;;14.05;;
43933;SDS011;59081;42.706;23.306;2023-01-15T00:18:48;33.10;;;15.70;;
43933;SDS011;59081;42.706;23.306;2023-01-15T00:21:18;29.08;;;14.55;;
43933;SDS011;59081;42.706;23.306;2023-01-15T00:23:44;34.60;;;15.65;;
43933;SDS011;59081;42.706;23.306;2023-01-15T00:26:29;31.65;;;14.75;;
43933;SDS011;59081;42.706;23.306;2023-01-15T00:29:14;28.25;;;16.45;;
43933;SDS011;59081;42.706;23.306;2023-01-15T00:31:41;32.45;;;15.60;;
43933;SDS011;59081;42.706;23.306;2023-01-15T00:34:08;34.33;;;17.40;;
43933;SDS011;59081;42.706;23.306;2023-01-15T00:36:33;28.13;;;14.25;;
43933;SDS011;59081;42.706;23.306;2023-01-15T00:38:59;29.05;;;15.02;;
43933;SDS011;59081;42.706;23.306;2023-01-15T00:41:25;31.35;;;14.88;;
43933;SDS011;59081;42.706;23.306;2023-01-15T00:43:50;30.25;;;17.40;;
43933;SDS011;59081;42.706;23.306;2023-01-15T00:46:17;34.42;;;17.42;;
43933;SDS011;59081;42.706;23.306;2023-01-15T00:48:44;30.13;;;15.65;;
43933;SDS011;59081;42.706;23.306;2023-01-15T00:51:10;31.80;;;15.50;;
43933;SDS011;59081;42.706;23.306;2023-01-15T00:53:35;33.28;;;16.13;;
43933;SDS011;59081;42.706;23.306;2023-01-15T00:56:01;29.95;;;14.77;;
43933;SDS011;59081;42.706;23.306;2023-01-15T00:58:26;29.77;;;15.48;;
43933;SDS011;59081;42.706;23.306;2023-01-15T01:00:55;28.33;;;15.00;;
43933;SDS011;59081;42.706;23.306;2023-01-15T01:03:21;32.00;;;15.57;;
43933;SDS011;59081;42.706;23.306;2023-01-15T01:05:48;28.65;;;15.25;;
43933;SDS011;59081;42.706;23.306;2023-01-15T01:08:14;31.83;;;15.57;;
43933;SDS011;59081;42.706;23.306;2023-01-15T01:10:40;31.20;;;15.80;;
43933;SDS011;59081;42.706;23.306;2023-01-15T01:13:05;27.00;;;14.07;;
43933;SDS011;59081;42.706;23.306;2023-01-15T01:15:34;29.77;;;14.85;;
43933;SDS011;59081;42.706;23.306;2023-01-15T01:18:00;30.80;;;13.98;;
43933;SDS011;59081;42.706;23.306;2023-01-15T01:20:27;28.73;;;14.07;;
43933;SDS011;59081;42.706;23.306;2023-01-15T01:22:52;28.23;;;13.90;;
43933;SDS011;59081;42.706;23.306;2023-01-15T01:25:18;24.15;;;13.65;;
43933;SDS011;59081;42.706;23.306;2023-01-15T01:27:44;23.08;;;12.93;;
43933;SDS011;59081;42.706;23.306;2023-01-15T01:30:13;28.48;;;13.55;;
43933;SDS011;59081;42.706;23.306;2023-01-15T01:32:39;23.30;;;13.05;;
43933;SDS011;59081;42.706;23.306;2023-01-15T01:35:07;21.77;;;11.88;;
43933;SDS011;59081;42.706;23.306;2023-01-15T01:37:33;19.38;;;11.15;;
43933;SDS011;59081;42.706;23.306;2023-01-15T01:39:58;19.95;;;11.02;;
43933;SDS011;59081;42.706;23.306;2023-01-15T01:42:24;22.42;;;11.02;;
43933;SDS011;59081;42.706;23.306;2023-01-15T01:47:24;23.67;;;11.50;;
43933;SDS011;59081;42.706;23.306;2023-01-15T01:49:53;19.85;;;10.63;;
43933;SDS011;59081;42.706;23.306;2023-01-15T01:52:27;20.10;;;10.93;;
43933;SDS011;59081;42.706;23.306;2023-01-15T01:54:57;21.80;;;11.88;;
43933;SDS011;59081;42.706;23.306;2023-01-15T01:57:24;23.75;;;10.60;;
43933;SDS011;59081;42.706;23.306;2023-01-15T01:59:49;26.20;;;12.45;;
43933;SDS011;59081;42.706;23.306;2023-01-15T02:02:16;22.75;;;11.05;;
43933;SDS011;59081;42.706;23.306;2023-01-15T02:04:45;19.15;;;10.18;;
43933;SDS011;59081;42.706;23.306;2023-01-15T02:07:11;21.55;;;11.80;;
43933;SDS011;59081;42.706;23.306;2023-01-15T02:09:37;23.80;;;12.00;;
43933;SDS011;59081;42.706;23.306;2023-01-15T02:12:36;22.15;;;12.13;;
43933;SDS011;59081;42.706;23.306;2023-01-15T02:17:51;19.40;;;10.45;;
43933;SDS011;59081;42.706;23.306;2023-01-15T02:29:11;25.70;;;11.88;;
43933;SDS011;59081;42.706;23.306;2023-01-15T02:31:42;19.58;;;11.15;;
43933;SDS011;59081;42.706;23.306;2023-01-15T02:34:15;24.98;;;11.65;;
43933;SDS011;59081;42.706;23.306;2023-01-15T02:36:44;22.98;;;12.02;;
43933;SDS011;59081;42.706;23.306;2023-01-15T02:39:14;22.00;;;11.73;;
43933;SDS011;59081;42.706;23.306;2023-01-15T02:41:46;22.23;;;12.00;;
43933;SDS011;59081;42.706;23.306;2023-01-15T02:44:16;24.10;;;11.70;;
43933;SDS011;59081;42.706;23.306;2023-01-15T02:46:45;20.17;;;10.93;;
43933;SDS011;59081;42.706;23.306;2023-01-15T02:49:13;19.17;;;10.93;;
43933;SDS011;59081;42.706;23.306;2023-01-15T02:52:24;27.23;;;12.68;;
43933;SDS011;59081;42.706;23.306;2023-01-15T02:54:42;20.75;;;10.68;;
43933;SDS011;59081;42.706;23.306;2023-01-15T02:57:17;21.00;;;11.98;;
43933;SDS011;59081;42.706;23.306;2023-01-15T02:59:45;18.35;;;10.43;;
43933;SDS011;59081;42.706;23.306;2023-01-15T03:02:19;25.52;;;11.45;;
43933;SDS011;59081;42.706;23.306;2023-01-15T03:04:59;25.10;;;12.55;;
43933;SDS011;59081;42.706;23.306;2023-01-15T03:07:36;21.83;;;12.43;;
43933;SDS011;59081;42.706;23.306;2023-01-15T03:10:08;22.67;;;10.43;;
43933;SDS011;59081;42.706;23.306;2023-01-15T03:12:45;19.55;;;9.75;;
43933;SDS011;59081;42.706;23.306;2023-01-15T03:16:03;24.30;;;12.15;;
43933;SDS011;59081;42.706;23.306;2023-01-15T03:19:01;23.27;;;11.35;;
43933;SDS011;59081;42.706;23.306;2023-01-15T03:26:54;20.80;;;10.05;;
43933;SDS011;59081;42.706;23.306;2023-01-15T03:29:21;24.90;;;11.80;;
43933;SDS011;59081;42.706;23.306;2023-01-15T03:31:50;24.63;;;12.57;;
43933;SDS011;59081;42.706;23.306;2023-01-15T03:34:16;24.67;;;10.77;;
43933;SDS011;59081;42.706;23.306;2023-01-15T03:36:41;24.77;;;11.90;;
43933;SDS011;59081;42.706;23.306;2023-01-15T03:39:08;24.48;;;11.68;;
43933;SDS011;59081;42.706;23.306;2023-01-15T03:47:23;21.52;;;11.77;;
43933;SDS011;59081;42.706;23.306;2023-01-15T03:50:01;19.85;;;10.85;;
43933;SDS011;59081;42.706;23.306;2023-01-15T03:52:40;30.35;;;11.23;;
43933;SDS011;59081;42.706;23.306;2023-01-15T03:55:18;29.15;;;15.23;;
43933;SDS011;59081;42.706;23.306;2023-01-15T03:57:51;24.63;;;12.23;;
43933;SDS011;59081;42.706;23.306;2023-01-15T04:03:18;24.55;;;11.88;;
43933;SDS011;59081;42.706;23.306;2023-01-15T04:05:46;24.98;;;12.23;;
43933;SDS011;59081;42.706;23.306;2023-01-15T04:08:14;28.02;;;13.60;;
43933;SDS011;59081;42.706;23.306;2023-01-15T04:10:57;26.77;;;13.75;;
43933;SDS011;59081;42.706;23.306;2023-01-15T04:13:23;24.92;;;11.57;;
43933;SDS011;59081;42.706;23.306;2023-01-15T04:15:50;20.27;;;11.70;;
43933;SDS011;59081;42.706;23.306;2023-01-15T04:18:16;25.50;;;12.38;;
43933;SDS011;59081;42.706;23.306;2023-01-15T04:20:42;20.83;;;11.07;;
43933;SDS011;59081;42.706;23.306;2023-01-15T04:23:07;23.92;;;11.90;;
43933;SDS011;59081;42.706;23.306;2023-01-15T04:25:33;22.77;;;11.13;;
43933;SDS011;59081;42.706;23.306;2023-01-15T04:27:59;24.20;;;11.23;;
43933;SDS011;59081;42.706;23.306;2023-01-15T04:30:24;21.23;;;10.88;;
43933;SDS011;59081;42.706;23.306;2023-01-15T04:32:50;22.90;;;11.63;;
43933;SDS011;59081;42.706;23.306;2023-01-15T04:35:16;22.08;;;10.50;;
43933;SDS011;59081;42.706;23.306;2023-01-15T04:37:42;20.80;;;11.10;;
43933;SDS011;59081;42.706;23.306;2023-01-15T04:40:08;20.05;;;10.57;;
43933;SDS011;59081;42.706;23.306;2023-01-15T04:42:54;18.85;;;10.13;;
43933;SDS011;59081;42.706;23.306;2023-01-15T04:45:38;21.02;;;10.57;;
43933;SDS011;59081;42.706;23.306;2023-01-15T04:48:04;20.13;;;9.77;;
43933;SDS011;59081;42.706;23.306;2023-01-15T04:50:30;20.92;;;10.05;;
43933;SDS011;59081;42.706;23.306;2023-01-15T04:52:55;15.55;;;8.27;;
43933;SDS011;59081;42.706;23.306;2023-01-15T04:55:20;23.38;;;10.35;;
43933;SDS011;59081;42.706;23.306;2023-01-15T04:57:48;21.73;;;8.95;;
43933;SDS011;59081;42.706;23.306;2023-01-15T05:00:14;17.65;;;9.57;;
43933;SDS011;59081;42.706;23.306;2023-01-15T05:02:40;22.35;;;9.77;;
43933;SDS011;59081;42.706;23.306;2023-01-15T05:05:06;17.98;;;9.18;;
43933;SDS011;59081;42.706;23.306;2023-01-15T05:07:31;18.85;;;10.38;;
43933;SDS011;59081;42.706;23.306;2023-01-15T05:09:57;21.58;;;10.77;;
43933;SDS011;59081;42.706;23.306;2023-01-15T05:12:22;17.38;;;9.27;;
43933;SDS011;59081;42.706;23.306;2023-01-15T05:14:48;19.00;;;9.35;;
43933;SDS011;59081;42.706;23.306;2023-01-15T05:17:13;22.77;;;10.27;;
43933;SDS011;59081;42.706;23.306;2023-01-15T05:19:39;16.38;;;9.82;;
43933;SDS011;59081;42.706;23.306;2023-01-15T05:22:04;18.15;;;9.55;;
43933;SDS011;59081;42.706;23.306;2023-01-15T05:24:33;19.95;;;9.20;;
43933;SDS011;59081;42.706;23.306;2023-01-15T05:26:58;23.83;;;9.57;;
43933;SDS011;59081;42.706;23.306;2023-01-15T05:29:24;19.15;;;10.10;;
43933;SDS011;59081;42.706;23.306;2023-01-15T05:31:49;17.05;;;8.63;;
43933;SDS011;59081;42.706;23.306;2023-01-15T05:34:14;18.42;;;9.20;;
43933;SDS011;59081;42.706;23.306;2023-01-15T05:36:40;18.15;;;8.75;;
43933;SDS011;59081;42.706;23.306;2023-01-15T05:39:06;17.58;;;8.82;;
43933;SDS011;59081;42.706;23.306;2023-01-15T05:41:32;14.35;;;8.00;;
43933;SDS011;59081;42.706;23.306;2023-01-15T05:46:49;21.42;;;10.18;;
43933;SDS011;59081;42.706;23.306;2023-01-15T05:49:17;21.10;;;10.02;;
43933;SDS011;59081;42.706;23.306;2023-01-15T05:51:45;15.02;;;8.02;;
43933;SDS011;59081;42.706;23.306;2023-01-15T05:54:15;16.45;;;9.02;;
43933;SDS011;59081;42.706;23.306;2023-01-15T05:56:42;17.45;;;8.00;;
43933;SDS011;59081;42.706;23.306;2023-01-15T05:59:09;13.82;;;8.10;;
43933;SDS011;59081;42.706;23.306;2023-01-15T06:01:36;17.13;;;9.20;;
43933;SDS011;59081;42.706;23.306;2023-01-15T06:04:02;15.75;;;8.55;;
43933;SDS011;59081;42.706;23.306;2023-01-15T06:06:29;23.40;;;10.02;;
43933;SDS011;59081;42.706;23.306;2023-01-15T06:08:56;23.67;;;10.10;;
43933;SDS011;59081;42.706;23.306;2023-01-15T06:11:21;17.95;;;9.55;;
43933;SDS011;59081;42.706;23.306;2023-01-15T06:13:47;22.00;;;9.45;;
43933;SDS011;59081;42.706;23.306;2023-01-15T06:16:12;18.02;;;9.48;;
43933;SDS011;59081;42.706;23.306;2023-01-15T06:18:38;25.20;;;11.95;;
43933;SDS011;59081;42.706;23.306;2023-01-15T06:21:05;22.75;;;10.38;;
43933;SDS011;59081;42.706;23.306;2023-01-15T06:23:32;23.25;;;11.20;;
43933;SDS011;59081;42.706;23.306;2023-01-15T06:26:04;16.95;;;8.60;;
43933;SDS011;59081;42.706;23.306;2023-01-15T06:28:31;17.60;;;9.45;;
43933;SDS011;59081;42.706;23.306;2023-01-15T06:30:57;19.00;;;10.27;;
43933;SDS011;59081;42.706;23.306;2023-01-15T06:33:22;16.52;;;7.38;;
43933;SDS011;59081;42.706;23.306;2023-01-15T06:35:48;16.75;;;9.10;;
43933;SDS011;59081;42.706;23.306;2023-01-15T06:38:14;19.73;;;10.13;;
43933;SDS011;59081;42.706;23.306;2023-01-15T06:40:39;21.70;;;10.43;;
43933;SDS011;59081;42.706;23.306;2023-01-15T06:43:05;20.23;;;10.85;;
43933;SDS011;59081;42.706;23.306;2023-01-15T06:45:49;38.03;;;20.08;;
43933;SDS011;59081;42.706;23.306;2023-01-15T06:48:33;36.00;;;17.67;;
43933;SDS011;59081;42.706;23.306;2023-01-15T06:50:59;37.20;;;19.08;;
43933;SDS011;59081;42.706;23.306;2023-01-15T06:53:24;38.15;;;17.60;;
43933;SDS011;59081;42.706;23.306;2023-01-15T06:55:50;34.30;;;17.88;;
43933;SDS011;59081;42.706;23.306;2023-01-15T06:58:15;40.10;;;19.50;;
43933;SDS011;59081;42.706;23.306;2023-01-15T07:00:41;31.42;;;16.33;;
43933;SDS011;59081;42.706;23.306;2023-01-15T07:03:08;34.10;;;18.30;;
43933;SDS011;59081;42.706;23.306;2023-01-15T07:05:36;35.85;;;17.42;;
43933;SDS011;59081;42.706;23.306;2023-01-15T07:08:03;36.17;;;19.35;;
43933;SDS011;59081;42.706;23.306;2023-01-15T07:10:28;40.80;;;20.20;;
43933;SDS011;59081;42.706;23.306;2023-01-15T07:12:54;40.58;;;19.30;;
43933;SDS011;59081;42.706;23.306;2023-01-15T07:15:19;39.55;;;19.33;;
43933;SDS011;59081;42.706;23.306;2023-01-15T07:17:45;40.17;;;19.10;;
43933;SDS011;59081;42.706;23.306;2023-01-15T07:20:10;41.30;;;21.27;;
43933;SDS011;59081;42.706;23.306;2023-01-15T07:22:36;44.03;;;20.50;;
43933;SDS011;59081;42.706;23.306;2023-01-15T07:25:02;37.03;;;17.67;;
43933;SDS011;59081;42.706;23.306;2023-01-15T07:27:27;32.30;;;17.77;;
43933;SDS011;59081;42.706;23.306;2023-01-15T07:29:53;33.97;;;17.70;;
43933;SDS011;59081;42.706;23.306;2023-01-15T07:32:18;32.58;;;19.00;;
43933;SDS011;59081;42.706;23.306;2023-01-15T07:34:44;28.58;;;15.45;;
43933;SDS011;59081;42.706;23.306;2023-01-15T07:37:09;35.63;;;18.85;;
43933;SDS011;59081;42.706;23.306;2023-01-15T07:39:35;33.40;;;16.83;;
43933;SDS011;59081;42.706;23.306;2023-01-15T07:42:01;36.00;;;16.67;;
43933;SDS011;59081;42.706;23.306;2023-01-15T07:44:45;34.97;;;17.05;;
43933;SDS011;59081;42.706;23.306;2023-01-15T07:47:28;35.42;;;16.38;;
43933;SDS011;59081;42.706;23.306;2023-01-15T07:50:21;34.83;;;16.75;;
43933;SDS011;59081;42.706;23.306;2023-01-15T07:52:47;36.58;;;16.45;;
43933;SDS011;59081;42.706;23.306;2023-01-15T07:55:13;31.92;;;15.68;;
43933;SDS011;59081;42.706;23.306;2023-01-15T07:57:42;31.67;;;16.95;;
43933;SDS011;59081;42.706;23.306;2023-01-15T08:00:09;34.22;;;17.75;;
43933;SDS011;59081;42.706;23.306;2023-01-15T08:02:40;35.00;;;16.30;;
43933;SDS011;59081;42.706;23.306;2023-01-15T08:05:06;34.58;;;17.63;;
43933;SDS011;59081;42.706;23.306;2023-01-15T08:07:36;36.17;;;18.80;;
43933;SDS011;59081;42.706;23.306;2023-01-15T08:10:03;38.75;;;19.20;;
43933;SDS011;59081;42.706;23.306;2023-01-15T08:12:29;30.30;;;16.45;;
43933;SDS011;59081;42.706;23.306;2023-01-15T08:15:13;37.13;;;17.00;;
43933;SDS011;59081;42.706;23.306;2023-01-15T08:17:39;29.70;;;16.05;;
43933;SDS011;59081;42.706;23.306;2023-01-15T08:20:11;22.75;;;13.40;;
43933;SDS011;59081;42.706;23.306;2023-01-15T08:22:39;19.23;;;11.25;;
43933;SDS011;59081;42.706;23.306;2023-01-15T08:25:06;25.63;;;14.07;;
43933;SDS011;59081;42.706;23.306;2023-01-15T08:27:33;39.60;;;20.92;;
43933;SDS011;59081;42.706;23.306;2023-01-15T08:29:58;25.38;;;12.23;;
43933;SDS011;59081;42.706;23.306;2023-01-15T08:32:24;21.48;;;12.88;;
43933;SDS011;59081;42.706;23.306;2023-01-15T08:34:49;50.17;;;28.45;;
43933;SDS011;59081;42.706;23.306;2023-01-15T08:37:15;25.75;;;14.55;;
43933;SDS011;59081;42.706;23.306;2023-01-15T08:39:40;30.17;;;16.50;;
43933;SDS011;59081;42.706;23.306;2023-01-15T08:42:06;21.60;;;12.80;;
43933;SDS011;59081;42.706;23.306;2023-01-15T08:44:32;19.65;;;10.80;;
43933;SDS011;59081;42.706;23.306;2023-01-15T08:46:58;21.58;;;11.80;;
43933;SDS011;59081;42.706;23.306;2023-01-15T08:49:23;16.33;;;10.02;;
43933;SDS011;59081;42.706;23.306;2023-01-15T08:51:48;19.80;;;10.30;;
43933;SDS011;59081;42.706;23.306;2023-01-15T08:54:16;16.83;;;9.60;;
43933;SDS011;59081;42.706;23.306;2023-01-15T08:56:43;19.77;;;11.93;;
43933;SDS011;59081;42.706;23.306;2023-01-15T08:59:09;17.23;;;10.35;;
43933;SDS011;59081;42.706;23.306;2023-01-15T09:01:35;19.25;;;10.40;;
43933;SDS011;59081;42.706;23.306;2023-01-15T09:04:01;17.73;;;9.93;;
43933;SDS011;59081;42.706;23.306;2023-01-15T09:06:26;22.52;;;10.38;;
43933;SDS011;59081;42.706;23.306;2023-01-15T09:08:52;22.17;;;11.40;;
43933;SDS011;59081;42.706;23.306;2023-01-15T09:11:18;17.70;;;10.65;;
43933;SDS011;59081;42.706;23.306;2023-01-15T09:13:44;22.35;;;11.52;;
43933;SDS011;59081;42.706;23.306;2023-01-15T09:16:11;18.75;;;11.35;;
43933;SDS011;59081;42.706;23.306;2023-01-15T09:18:37;20.42;;;11.20;;
43933;SDS011;59081;42.706;23.306;2023-01-15T09:21:05;20.77;;;11.48;;
43933;SDS011;59081;42.706;23.306;2023-01-15T09:23:31;18.80;;;10.75;;
43933;SDS011;59081;42.706;23.306;2023-01-15T09:25:58;19.55;;;10.98;;
43933;SDS011;59081;42.706;23.306;2023-01-15T09:28:26;20.45;;;11.80;;
43933;SDS011;59081;42.706;23.306;2023-01-15T09:30:53;22.48;;;11.35;;
43933;SDS011;59081;42.706;23.306;2023-01-15T09:33:19;20.90;;;11.80;;
43933;SDS011;59081;42.706;23.306;2023-01-15T09:35:45;24.85;;;12.90;;
43933;SDS011;59081;42.706;23.306;2023-01-15T09:38:12;21.40;;;12.18;;
43933;SDS011;59081;42.706;23.306;2023-01-15T09:40:46;21.40;;;12.13;;
43933;SDS011;59081;42.706;23.306;2023-01-15T09:46:14;21.08;;;12.90;;
43933;SDS011;59081;42.706;23.306;2023-01-15T09:56:48;29.25;;;15.15;;
43933;SDS011;59081;42.706;23.306;2023-01-15T09:59:18;30.55;;;16.35;;
43933;SDS011;59081;42.706;23.306;2023-01-15T10:01:51;36.03;;;20.33;;
43933;SDS011;59081;42.706;23.306;2023-01-15T10:04:34;32.83;;;17.77;;
43933;SDS011;59081;42.706;23.306;2023-01-15T10:07:07;51.15;;;24.13;;
43933;SDS011;59081;42.706;23.306;2023-01-15T10:09:36;28.50;;;17.58;;
43933;SDS011;59081;42.706;23.306;2023-01-15T10:12:12;36.72;;;19.13;;
43933;SDS011;59081;42.706;23.306;2023-01-15T10:15:00;31.67;;;16.35;;
43933;SDS011;59081;42.706;23.306;2023-01-15T10:17:51;27.30;;;15.73;;
43933;SDS011;59081;42.706;23.306;2023-01-15T10:26:04;30.38;;;15.65;;
43933;SDS011;59081;42.706;23.306;2023-01-15T10:37:03;27.35;;;14.75;;
43933;SDS011;59081;42.706;23.306;2023-01-15T10:39:39;26.45;;;14.10;;
43933;SDS011;59081;42.706;23.306;2023-01-15T10:47:45;21.05;;;11.10;;
43933;SDS011;59081;42.706;23.306;2023-01-15T10:50:19;22.27;;;12.20;;
43933;SDS011;59081;42.706;23.306;2023-01-15T10:52:48;23.65;;;12.65;;
43933;SDS011;59081;42.706;23.306;2023-01-15T10:55:26;19.08;;;9.63;;
43933;SDS011;59081;42.706;23.306;2023-01-15T10:58:33;25.70;;;12.38;;
43933;SDS011;59081;42.706;23.306;2023-01-15T11:00:55;20.63;;;11.05;;
43933;SDS011;59081;42.706;23.306;2023-01-15T11:03:30;21.35;;;12.95;;
43933;SDS011;59081;42.706;23.306;2023-01-15T11:06:00;24.95;;;14.00;;
43933;SDS011;59081;42.706;23.306;2023-01-15T11:08:25;29.48;;;15.07;;
43933;SDS011;59081;42.706;23.306;2023-01-15T11:10:55;26.85;;;14.63;;
43933;SDS011;59081;42.706;23.306;2023-01-15T11:13:23;27.30;;;16.02;;
43933;SDS011;59081;42.706;23.306;2023-01-15T11:16:14;28.30;;;14.57;;
43933;SDS011;59081;42.706;23.306;2023-01-15T11:19:20;26.55;;;13.48;;
43933;SDS011;59081;42.706;23.306;2023-01-15T11:24:59;25.95;;;15.25;;
43933;SDS011;59081;42.706;23.306;2023-01-15T11:27:32;25.25;;;14.63;;
43933;SDS011;59081;42.706;23.306;2023-01-15T11:30:00;23.95;;;12.43;;
43933;SDS011;59081;42.706;23.306;2023-01-15T11:32:29;21.85;;;12.88;;
43933;SDS011;59081;42.706;23.306;2023-01-15T11:34:55;21.45;;;12.07;;
43933;SDS011;59081;42.706;23.306;2023-01-15T11:37:25;20.92;;;12.77;;
43933;SDS011;59081;42.706;23.306;2023-01-15T11:39:55;19.33;;;10.60;;
43933;SDS011;59081;42.706;23.306;2023-01-15T11:42:28;26.17;;;14.40;;
43933;SDS011;59081;42.706;23.306;2023-01-15T11:45:13;17.40;;;9.38;;
43933;SDS011;59081;42.706;23.306;2023-01-15T11:47:59;22.70;;;12.23;;
43933;SDS011;59081;42.706;23.306;2023-01-15T11:50:54;14.27;;;8.60;;
43933;SDS011;59081;42.706;23.306;2023-01-15T11:53:27;19.80;;;11.07;;
43933;SDS011;59081;42.706;23.306;2023-01-15T11:55:58;19.77;;;12.55;;
43933;SDS011;59081;42.706;23.306;2023-01-15T11:58:26;17.77;;;9.98;;
43933;SDS011;59081;42.706;23.306;2023-01-15T12:03:58;15.88;;;9.80;;
43933;SDS011;59081;42.706;23.306;2023-01-15T12:06:25;18.13;;;10.32;;
43933;SDS011;59081;42.706;23.306;2023-01-15T12:24:41;14.73;;;8.73;;
43933;SDS011;59081;42.706;23.306;2023-01-15T12:32:45;12.52;;;6.70;;
43933;SDS011;59081;42.706;23.306;2023-01-15T12:35:29;11.27;;;7.75;;
43933;SDS011;59081;42.706;23.306;2023-01-15T12:38:17;12.43;;;7.90;;
43933;SDS011;59081;42.706;23.306;2023-01-15T12:41:16;12.20;;;8.00;;
43933;SDS011;59081;42.706;23.306;2023-01-15T12:44:11;11.57;;;7.30;;
43933;SDS011;59081;42.706;23.306;2023-01-15T12:47:02;8.65;;;5.97;;
43933;SDS011;59081;42.706;23.306;2023-01-15T12:49:39;11.65;;;8.10;;
43933;SDS011;59081;42.706;23.306;2023-01-15T12:52:17;11.48;;;6.65;;
43933;SDS011;59081;42.706;23.306;2023-01-15T12:54:50;13.30;;;8.02;;
43933;SDS011;59081;42.706;23.306;2023-01-15T12:57:27;12.05;;;7.97;;
43933;SDS011;59081;42.706;23.306;2023-01-15T13:02:39;16.35;;;8.80;;
43933;SDS011;59081;42.706;23.306;2023-01-15T13:05:16;18.38;;;11.00;;
43933;SDS011;59081;42.706;23.306;2023-01-15T13:08:14;13.00;;;8.48;;
43933;SDS011;59081;42.706;23.306;2023-01-15T13:10:50;5.55;;;3.03;;
43933;SDS011;59081;42.706;23.306;2023-01-15T13:13:21;14.75;;;8.68;;
43933;SDS011;59081;42.706;23.306;2023-01-15T13:18:58;10.40;;;6.40;;
43933;SDS011;59081;42.706;23.306;2023-01-15T13:21:30;13.23;;;6.50;;
43933;SDS011;59081;42.706;23.306;2023-01-15T13:35:21;14.70;;;7.35;;
43933;SDS011;59081;42.706;23.306;2023-01-15T13:37:55;12.13;;;7.10;;
43933;SDS011;59081;42.706;23.306;2023-01-15T13:40:57;11.73;;;7.03;;
43933;SDS011;59081;42.706;23.306;2023-01-15T13:43:35;12.95;;;7.50;;
43933;SDS011;59081;42.706;23.306;2023-01-15T13:46:04;15.18;;;6.35;;
43933;SDS011;59081;42.706;23.306;2023-01-15T13:48:44;7.57;;;4.95;;
43933;SDS011;59081;42.706;23.306;2023-01-15T13:53:57;10.50;;;6.50;;
43933;SDS011;59081;42.706;23.306;2023-01-15T13:56:29;11.85;;;7.72;;
43933;SDS011;59081;42.706;23.306;2023-01-15T13:59:00;11.80;;;7.60;;
43933;SDS011;59081;42.706;23.306;2023-01-15T14:01:35;15.30;;;7.80;;
43933;SDS011;59081;42.706;23.306;2023-01-15T14:04:02;14.10;;;8.07;;
43933;SDS011;59081;42.706;23.306;2023-01-15T14:06:43;12.63;;;7.47;;
43933;SDS011;59081;42.706;23.306;2023-01-15T14:12:26;14.77;;;8.10;;
43933;SDS011;59081;42.706;23.306;2023-01-15T14:17:47;16.02;;;9.25;;
43933;SDS011;59081;42.706;23.306;2023-01-15T14:32:19;20.73;;;8.40;;
43933;SDS011;59081;42.706;23.306;2023-01-15T14:34:56;9.82;;;5.00;;
43933;SDS011;59081;42.706;23.306;2023-01-15T14:37:24;16.90;;;9.70;;
43933;SDS011;59081;42.706;23.306;2023-01-15T14:39:55;17.10;;;8.80;;
43933;SDS011;59081;42.706;23.306;2023-01-15T14:42:33;18.52;;;9.25;;
43933;SDS011;59081;42.706;23.306;2023-01-15T14:48:02;16.40;;;9.02;;
43933;SDS011;59081;42.706;23.306;2023-01-15T14:50:47;17.40;;;9.93;;
43933;SDS011;59081;42.706;23.306;2023-01-15T14:53:30;19.45;;;10.73;;
43933;SDS011;59081;42.706;23.306;2023-01-15T14:58:49;17.08;;;8.65;;
43933;SDS011;59081;42.706;23.306;2023-01-15T15:01:35;15.30;;;6.25;;
43933;SDS011;59081;42.706;23.306;2023-01-15T15:07:06;7.90;;;4.40;;
43933;SDS011;59081;42.706;23.306;2023-01-15T15:12:06;20.02;;;10.57;;
43933;SDS011;59081;42.706;23.306;2023-01-15T15:23:27;20.42;;;11.80;;
43933;SDS011;59081;42.706;23.306;2023-01-15T15:26:03;26.75;;;12.00;;
43933;SDS011;59081;42.706;23.306;2023-01-15T15:28:31;24.55;;;11.45;;
43933;SDS011;59081;42.706;23.306;2023-01-15T15:30:57;25.48;;;12.65;;
43933;SDS011;59081;42.706;23.306;2023-01-15T15:33:26;21.75;;;7.10;;
43933;SDS011;59081;42.706;23.306;2023-01-15T15:36:00;27.60;;;14.70;;
43933;SDS011;59081;42.706;23.306;2023-01-15T15:38:26;25.80;;;13.55;;
43933;SDS011;59081;42.706;23.306;2023-01-15T15:40:52;24.50;;;13.50;;
43933;SDS011;59081;42.706;23.306;2023-01-15T15:43:38;29.33;;;13.82;;
43933;SDS011;59081;42.706;23.306;2023-01-15T15:46:32;28.98;;;15.50;;
43933;SDS011;59081;42.706;23.306;2023-01-15T15:49:16;33.50;;;16.15;;
43933;SDS011;59081;42.706;23.306;2023-01-15T15:51:48;32.47;;;15.73;;
43933;SDS011;59081;42.706;23.306;2023-01-15T15:59:35;32.33;;;17.85;;
43933;SDS011;59081;42.706;23.306;2023-01-15T16:04:46;36.42;;;17.13;;
43933;SDS011;59081;42.706;23.306;2023-01-15T16:07:12;33.60;;;16.92;;
43933;SDS011;59081;42.706;23.306;2023-01-15T16:09:39;36.40;;;15.65;;
43933;SDS011;59081;42.706;23.306;2023-01-15T16:12:06;40.25;;;18.00;;
43933;SDS011;59081;42.706;23.306;2023-01-15T16:14:36;38.70;;;18.00;;
43933;SDS011;59081;42.706;23.306;2023-01-15T16:17:02;38.75;;;21.08;;
43933;SDS011;59081;42.706;23.306;2023-01-15T16:19:28;45.03;;;20.52;;
43933;SDS011;59081;42.706;23.306;2023-01-15T16:21:54;31.98;;;18.35;;
43933;SDS011;59081;42.706;23.306;2023-01-15T16:24:22;36.42;;;19.42;;
43933;SDS011;59081;42.706;23.306;2023-01-15T16:27:07;40.30;;;20.75;;
43933;SDS011;59081;42.706;23.306;2023-01-15T16:29:44;42.20;;;19.77;;
43933;SDS011;59081;42.706;23.306;2023-01-15T16:32:21;36.85;;;20.13;;
43933;SDS011;59081;42.706;23.306;2023-01-15T16:34:57;38.30;;;20.15;;
43933;SDS011;59081;42.706;23.306;2023-01-15T16:37:28;36.38;;;19.08;;
43933;SDS011;59081;42.706;23.306;2023-01-15T16:39:54;37.08;;;18.75;;
43933;SDS011;59081;42.706;23.306;2023-01-15T16:42:26;39.55;;;20.85;;
43933;SDS011;59081;42.706;23.306;2023-01-15T16:45:17;51.03;;;24.05;;
43933;SDS011;59081;42.706;23.306;2023-01-15T16:48:08;47.92;;;23.10;;
43933;SDS011;59081;42.706;23.306;2023-01-15T16:50:35;50.05;;;24.17;;
43933;SDS011;59081;42.706;23.306;2023-01-15T16:53:03;49.00;;;25.00;;
43933;SDS011;59081;42.706;23.306;2023-01-15T17:00:46;43.90;;;22.58;;
43933;SDS011;59081;42.706;23.306;2023-01-15T17:03:16;39.47;;;20.55;;
43933;SDS011;59081;42.706;23.306;2023-01-15T17:05:53;45.90;;;21.30;;
43933;SDS011;59081;42.706;23.306;2023-01-15T17:08:23;36.33;;;19.90;;
43933;SDS011;59081;42.706;23.306;2023-01-15T17:11:05;40.67;;;21.60;;
43933;SDS011;59081;42.706;23.306;2023-01-15T17:13:49;41.60;;;19.00;;